Campanya meteocatpedra

Dades EMA Tornabous

?
?
Resum diari
Dades diàries de l'estació meteorològica
Temperatura mitjana 8.9 °C
Temperatura màxima 13.2 °C 14:53 TU
Temperatura mínima 5.7 °C 19:56 TU
Humitat relativa mitjana 64%
Precipitació acumulada 0.0 mm
Ratxa màxima del vent (2 m) 22.3 km/h - 237º 12:36 TU

El tram horari està expressat en Temps Universal (TU). Cal sumar una hora en horari d'hivern i dues en horari d'estiu per passar a l'hora oficial.

Tornabous

Metadades estació meteorol´gica
Municipi Tornabous
Comarca Urgell
Altitud 291 m
Data alta 06.08.2013
Estat actual Operativa
Dades de període
Període
TU
TM
°C
TX
°C
TN
°C
HRM
%
PPT
mm
VVM (2 m)
km/h
DVM (2 m)
graus
VVX (2 m)
km/h
00:00 - 00:30 7.9 8.2 7.7 83 0.0 5.4 204 10.8
00:30 - 01:00 8.0 8.2 7.6 82 0.0 0.7 253 7.6
01:00 - 01:30 7.8 8.0 7.7 82 0.0 6.5 248 16.2
01:30 - 02:00 7.7 7.9 7.4 81 0.0 4.3 240 11.5
02:00 - 02:30 7.3 7.5 7.1 81 0.0 0.7 281 7.6
02:30 - 03:00 6.7 7.1 6.6 85 0.0 0.7 295 5.8
03:00 - 03:30 6.6 6.6 6.6 86 0.0 0.7 274 6.8
03:30 - 04:00 6.3 6.6 5.9 87 0.0 0.7 270 6.8
04:00 - 04:30 6.1 6.3 5.9 88 0.0 1.1 236 6.5
04:30 - 05:00 6.2 6.3 6.2 88 0.0 1.8 220 7.9
05:00 - 05:30 6.2 6.2 6.2 88 0.0 3.6 242 8.6
05:30 - 06:00 6.2 6.3 6.2 88 0.0 1.8 242 9.0
06:00 - 06:30 6.2 6.2 6.2 87 0.0 0.7 228 6.1
06:30 - 07:00 6.4 6.6 6.2 87 0.0 0.4 207 6.1
07:00 - 07:30 6.7 6.8 6.6 81 0.0 4.7 237 18.0
07:30 - 08:00 6.9 7.0 6.7 73 0.0 9.4 256 19.4
08:00 - 08:30 7.2 7.3 7.0 72 0.0 8.3 254 17.3
08:30 - 09:00 7.5 7.7 7.3 70 0.0 10.1 259 19.4
09:00 - 09:30 8.0 8.7 7.4 64 0.0 10.4 273 20.5
09:30 - 10:00 9.1 9.7 8.6 60 0.0 9.7 269 19.8
10:00 - 10:30 9.3 10.0 8.6 58 0.0 7.9 266 17.3
10:30 - 11:00 9.7 10.4 8.7 56 0.0 9.0 268 18.0
11:00 - 11:30 10.1 10.5 9.3 52 0.0 7.2 266 16.2
11:30 - 12:00 10.5 11.7 9.6 51 0.0 8.3 258 20.5
12:00 - 12:30 11.2 11.7 10.8 48 0.0 7.6 253 19.8
12:30 - 13:00 11.8 12.3 11.5 46 0.0 8.3 262 22.3
13:00 - 13:30 12.2 12.6 11.9 44 0.0 9.4 258 19.4
13:30 - 14:00 12.4 12.8 12.0 43 0.0 7.9 262 19.8
14:00 - 14:30 12.6 13.0 12.1 41 0.0 6.8 269 17.3
14:30 - 15:00 12.7 13.2 12.3 40 0.0 7.6 249 17.6
15:00 - 15:30 12.8 13.0 12.5 39 0.0 6.5 239 16.2
15:30 - 16:00 12.6 12.8 12.4 38 0.0 6.5 265 20.5
16:00 - 16:30 12.6 12.9 12.4 37 0.0 5.0 289 13.0
16:30 - 17:00 12.5 12.7 12.3 37 0.0 4.7 273 11.9
17:00 - 17:30 12.0 12.4 11.4 37 0.0 3.2 277 7.2
17:30 - 18:00 10.5 11.4 9.5 44 0.0 1.1 282 4.0
18:00 - 18:30 8.8 9.5 8.2 50 0.0 0.0 264 1.8
18:30 - 19:00 7.5 8.1 6.7 57 0.0 0.0 164 0.0
19:00 - 19:30 6.5 6.7 6.2 64 0.0 1.1 145 4.0
19:30 - 20:00 6.2 6.7 5.7 64 0.0 1.4 95 3.2

Les dades en taronja només han passat un control de qualitat automàtic. Resta pendent la seva validació definitiva.